sensor_id;sensor_type;location;lat;lon;timestamp;pressure;altitude;pressure_sealevel;temperature;humidity
42705;BME280;28342;42.594;23.414;2023-05-20T00:01:33;94846.03;;;11.21;92.86
42705;BME280;28342;42.594;23.414;2023-05-20T00:03:59;94836.59;;;11.15;92.77
42705;BME280;28342;42.594;23.414;2023-05-20T00:06:27;94833.13;;;11.05;93.39
42705;BME280;28342;42.594;23.414;2023-05-20T00:08:53;94824.69;;;11.03;93.38
42705;BME280;28342;42.594;23.414;2023-05-20T00:11:19;94843.75;;;11.05;93.92
42705;BME280;28342;42.594;23.414;2023-05-20T00:13:46;94825.72;;;10.80;94.08
42705;BME280;28342;42.594;23.414;2023-05-20T00:16:11;94839.38;;;11.10;92.83
42705;BME280;28342;42.594;23.414;2023-05-20T00:18:37;94830.94;;;11.07;93.25
42705;BME280;28342;42.594;23.414;2023-05-20T00:21:02;94830.00;;;11.03;93.91
42705;BME280;28342;42.594;23.414;2023-05-20T00:23:28;94835.66;;;11.11;93.69
42705;BME280;28342;42.594;23.414;2023-05-20T00:25:53;94839.75;;;11.17;94.09
42705;BME280;28342;42.594;23.414;2023-05-20T00:28:19;94835.16;;;11.08;93.68
42705;BME280;28342;42.594;23.414;2023-05-20T00:30:44;94806.47;;;10.88;93.84
42705;BME280;28342;42.594;23.414;2023-05-20T00:33:10;94797.50;;;10.62;94.72
42705;BME280;28342;42.594;23.414;2023-05-20T00:35:37;94826.19;;;10.60;96.14
42705;BME280;28342;42.594;23.414;2023-05-20T00:38:02;94823.59;;;10.68;96.44
42705;BME280;28342;42.594;23.414;2023-05-20T00:40:28;94799.72;;;10.32;97.42
42705;BME280;28342;42.594;23.414;2023-05-20T00:42:53;94826.41;;;10.50;97.56
42705;BME280;28342;42.594;23.414;2023-05-20T00:45:18;94818.38;;;10.13;100.00
42705;BME280;28342;42.594;23.414;2023-05-20T00:47:44;94809.66;;;10.27;98.89
42705;BME280;28342;42.594;23.414;2023-05-20T00:50:11;94809.72;;;10.35;97.31
42705;BME280;28342;42.594;23.414;2023-05-20T00:52:37;94784.19;;;10.39;96.46
42705;BME280;28342;42.594;23.414;2023-05-20T00:55:03;94783.31;;;10.44;96.55
42705;BME280;28342;42.594;23.414;2023-05-20T00:57:28;94770.47;;;10.24;97.10
42705;BME280;28342;42.594;23.414;2023-05-20T00:59:54;94796.56;;;10.44;97.10
42705;BME280;28342;42.594;23.414;2023-05-20T01:02:20;94796.31;;;10.54;96.79
42705;BME280;28342;42.594;23.414;2023-05-20T01:04:45;94798.88;;;10.59;95.99
42705;BME280;28342;42.594;23.414;2023-05-20T01:07:15;94781.22;;;10.41;96.62
42705;BME280;28342;42.594;23.414;2023-05-20T01:09:41;94784.75;;;10.50;96.55
42705;BME280;28342;42.594;23.414;2023-05-20T01:12:24;94805.34;;;10.67;96.68
42705;BME280;28342;42.594;23.414;2023-05-20T01:15:06;94817.91;;;10.75;96.26
42705;BME280;28342;42.594;23.414;2023-05-20T01:17:37;94790.66;;;10.47;95.40
42705;BME280;28342;42.594;23.414;2023-05-20T01:20:04;94819.06;;;10.69;94.81
42705;BME280;28342;42.594;23.414;2023-05-20T01:22:57;94809.06;;;10.66;94.71
42705;BME280;28342;42.594;23.414;2023-05-20T01:25:22;94818.84;;;10.79;93.94
42705;BME280;28342;42.594;23.414;2023-05-20T01:27:49;94827.88;;;10.92;93.79
42705;BME280;28342;42.594;23.414;2023-05-20T01:30:17;94827.88;;;10.92;93.12
42705;BME280;28342;42.594;23.414;2023-05-20T01:32:46;94829.25;;;10.89;92.88
42705;BME280;28342;42.594;23.414;2023-05-20T01:35:15;94818.63;;;10.89;92.71
42705;BME280;28342;42.594;23.414;2023-05-20T01:37:42;94796.59;;;10.66;94.36
42705;BME280;28342;42.594;23.414;2023-05-20T01:40:09;94815.25;;;10.75;94.45
42705;BME280;28342;42.594;23.414;2023-05-20T01:42:37;94815.19;;;10.53;95.84
42705;BME280;28342;42.594;23.414;2023-05-20T01:45:04;94791.06;;;10.40;95.07
42705;BME280;28342;42.594;23.414;2023-05-20T01:47:31;94804.81;;;10.42;95.31
42705;BME280;28342;42.594;23.414;2023-05-20T01:49:57;94819.56;;;10.21;96.54
42705;BME280;28342;42.594;23.414;2023-05-20T01:52:22;94788.13;;;10.14;96.27
42705;BME280;28342;42.594;23.414;2023-05-20T01:54:48;94794.81;;;10.26;95.83
42705;BME280;28342;42.594;23.414;2023-05-20T01:57:19;94795.97;;;10.19;95.61
42705;BME280;28342;42.594;23.414;2023-05-20T01:59:45;94818.16;;;10.37;95.21
42705;BME280;28342;42.594;23.414;2023-05-20T02:02:12;94788.53;;;10.22;95.24
42705;BME280;28342;42.594;23.414;2023-05-20T02:04:37;94804.06;;;10.28;95.13
42705;BME280;28342;42.594;23.414;2023-05-20T02:07:03;94806.78;;;10.23;95.63
42705;BME280;28342;42.594;23.414;2023-05-20T02:09:28;94784.00;;;10.08;95.57
42705;BME280;28342;42.594;23.414;2023-05-20T02:11:54;94787.34;;;10.14;94.70
42705;BME280;28342;42.594;23.414;2023-05-20T02:14:19;94793.75;;;10.13;94.84
42705;BME280;28342;42.594;23.414;2023-05-20T02:16:45;94784.41;;;10.02;95.35
42705;BME280;28342;42.594;23.414;2023-05-20T02:19:11;94782.06;;;9.86;95.80
42705;BME280;28342;42.594;23.414;2023-05-20T02:21:40;94793.56;;;9.96;95.48
42705;BME280;28342;42.594;23.414;2023-05-20T02:24:06;94810.13;;;10.15;96.01
42705;BME280;28342;42.594;23.414;2023-05-20T02:26:33;94804.22;;;10.18;96.17
42705;BME280;28342;42.594;23.414;2023-05-20T02:28:58;94810.72;;;10.12;97.17
42705;BME280;28342;42.594;23.414;2023-05-20T02:31:24;94812.00;;;10.14;96.62
42705;BME280;28342;42.594;23.414;2023-05-20T02:33:50;94806.22;;;10.12;96.31
42705;BME280;28342;42.594;23.414;2023-05-20T02:36:17;94790.31;;;9.99;95.46
42705;BME280;28342;42.594;23.414;2023-05-20T02:38:43;94804.53;;;10.03;96.17
42705;BME280;28342;42.594;23.414;2023-05-20T02:41:09;94807.97;;;10.03;95.76
42705;BME280;28342;42.594;23.414;2023-05-20T02:43:34;94797.00;;;9.82;95.82
42705;BME280;28342;42.594;23.414;2023-05-20T02:46:04;94805.31;;;9.76;97.20
42705;BME280;28342;42.594;23.414;2023-05-20T02:48:29;94799.94;;;9.67;97.53
42705;BME280;28342;42.594;23.414;2023-05-20T02:50:55;94799.91;;;9.53;97.37
42705;BME280;28342;42.594;23.414;2023-05-20T02:53:20;94796.56;;;9.48;97.77
42705;BME280;28342;42.594;23.414;2023-05-20T02:55:46;94792.81;;;9.49;97.43
42705;BME280;28342;42.594;23.414;2023-05-20T02:58:12;94799.03;;;9.58;97.98
42705;BME280;28342;42.594;23.414;2023-05-20T03:00:38;94795.19;;;9.64;97.60
42705;BME280;28342;42.594;23.414;2023-05-20T03:03:05;94794.63;;;9.67;98.21
42705;BME280;28342;42.594;23.414;2023-05-20T03:05:35;94802.97;;;9.74;97.14
42705;BME280;28342;42.594;23.414;2023-05-20T03:08:08;94804.84;;;9.74;96.24
42705;BME280;28342;42.594;23.414;2023-05-20T03:10:38;94803.06;;;9.69;96.05
42705;BME280;28342;42.594;23.414;2023-05-20T03:13:04;94775.34;;;9.34;97.64
42705;BME280;28342;42.594;23.414;2023-05-20T03:15:33;94815.91;;;9.62;98.22
42705;BME280;28342;42.594;23.414;2023-05-20T03:17:59;94789.97;;;9.32;98.26
42705;BME280;28342;42.594;23.414;2023-05-20T03:20:25;94801.47;;;9.41;97.11
42705;BME280;28342;42.594;23.414;2023-05-20T03:22:51;94828.28;;;9.67;96.78
42705;BME280;28342;42.594;23.414;2023-05-20T03:25:16;94795.41;;;9.54;97.63
42705;BME280;28342;42.594;23.414;2023-05-20T03:27:43;94826.41;;;9.67;97.59
42705;BME280;28342;42.594;23.414;2023-05-20T03:30:09;94816.97;;;9.61;96.58
42705;BME280;28342;42.594;23.414;2023-05-20T03:32:34;94801.56;;;9.49;96.26
42705;BME280;28342;42.594;23.414;2023-05-20T03:35:00;94808.53;;;9.59;96.10
42705;BME280;28342;42.594;23.414;2023-05-20T03:37:26;94833.88;;;9.79;96.04
42705;BME280;28342;42.594;23.414;2023-05-20T03:39:53;94808.97;;;9.66;96.62
42705;BME280;28342;42.594;23.414;2023-05-20T03:42:19;94826.44;;;9.81;97.48
42705;BME280;28342;42.594;23.414;2023-05-20T03:44:44;94794.81;;;9.71;96.56
42705;BME280;28342;42.594;23.414;2023-05-20T03:47:10;94826.41;;;9.95;96.38
42705;BME280;28342;42.594;23.414;2023-05-20T03:49:35;94823.69;;;10.00;95.90
42705;BME280;28342;42.594;23.414;2023-05-20T03:52:00;94814.25;;;9.94;95.82
42705;BME280;28342;42.594;23.414;2023-05-20T03:54:27;94827.91;;;10.01;95.63
42705;BME280;28342;42.594;23.414;2023-05-20T03:56:54;94833.69;;;10.03;96.29
42705;BME280;28342;42.594;23.414;2023-05-20T03:59:20;94838.31;;;10.11;95.93
42705;BME280;28342;42.594;23.414;2023-05-20T04:01:46;94827.78;;;10.06;95.62
42705;BME280;28342;42.594;23.414;2023-05-20T04:04:12;94820.31;;;10.08;95.24
42705;BME280;28342;42.594;23.414;2023-05-20T04:06:38;94817.38;;;10.09;95.16
42705;BME280;28342;42.594;23.414;2023-05-20T04:09:04;94819.16;;;10.14;95.09
42705;BME280;28342;42.594;23.414;2023-05-20T04:11:30;94846.97;;;10.30;95.22
42705;BME280;28342;42.594;23.414;2023-05-20T04:13:55;94847.44;;;10.46;95.30
42705;BME280;28342;42.594;23.414;2023-05-20T04:16:22;94834.84;;;10.52;94.73
42705;BME280;28342;42.594;23.414;2023-05-20T04:18:48;94836.69;;;10.65;94.26
42705;BME280;28342;42.594;23.414;2023-05-20T04:21:14;94810.41;;;10.77;91.90
42705;BME280;28342;42.594;23.414;2023-05-20T04:23:40;94829.47;;;11.01;92.30
42705;BME280;28342;42.594;23.414;2023-05-20T04:26:05;94849.88;;;11.15;90.21
42705;BME280;28342;42.594;23.414;2023-05-20T04:28:32;94839.44;;;10.96;90.54
42705;BME280;28342;42.594;23.414;2023-05-20T04:31:01;94831.28;;;11.15;91.87
42705;BME280;28342;42.594;23.414;2023-05-20T04:33:30;94829.72;;;11.36;90.18
42705;BME280;28342;42.594;23.414;2023-05-20T04:35:57;94837.44;;;11.46;92.10
42705;BME280;28342;42.594;23.414;2023-05-20T04:38:25;94839.97;;;11.51;91.06
42705;BME280;28342;42.594;23.414;2023-05-20T04:40:55;94854.69;;;11.57;88.51
42705;BME280;28342;42.594;23.414;2023-05-20T04:43:23;94846.47;;;11.67;91.74
42705;BME280;28342;42.594;23.414;2023-05-20T04:45:49;94844.53;;;11.82;89.33
42705;BME280;28342;42.594;23.414;2023-05-20T04:48:14;94829.53;;;11.86;90.81
42705;BME280;28342;42.594;23.414;2023-05-20T04:50:39;94866.91;;;12.20;90.01
42705;BME280;28342;42.594;23.414;2023-05-20T04:53:06;94855.81;;;12.27;88.66
42705;BME280;28342;42.594;23.414;2023-05-20T04:55:32;94866.03;;;12.42;87.19
42705;BME280;28342;42.594;23.414;2023-05-20T04:57:57;94862.28;;;12.52;86.82
42705;BME280;28342;42.594;23.414;2023-05-20T05:00:23;94841.31;;;12.50;86.22
42705;BME280;28342;42.594;23.414;2023-05-20T05:02:48;94861.38;;;12.65;85.58
42705;BME280;28342;42.594;23.414;2023-05-20T05:05:14;94845.69;;;12.55;86.56
42705;BME280;28342;42.594;23.414;2023-05-20T05:07:40;94848.53;;;12.67;86.01
42705;BME280;28342;42.594;23.414;2023-05-20T05:10:05;94856.06;;;12.82;84.87
42705;BME280;28342;42.594;23.414;2023-05-20T05:12:31;94867.22;;;13.02;85.34
42705;BME280;28342;42.594;23.414;2023-05-20T05:14:56;94865.66;;;13.09;85.86
42705;BME280;28342;42.594;23.414;2023-05-20T05:17:23;94848.41;;;13.07;84.73
42705;BME280;28342;42.594;23.414;2023-05-20T05:19:48;94871.78;;;13.27;86.72
42705;BME280;28342;42.594;23.414;2023-05-20T05:22:13;94861.13;;;13.36;85.25
42705;BME280;28342;42.594;23.414;2023-05-20T05:24:39;94862.06;;;13.49;85.87
42705;BME280;28342;42.594;23.414;2023-05-20T05:27:04;94840.13;;;13.34;85.88
42705;BME280;28342;42.594;23.414;2023-05-20T05:29:30;94844.78;;;13.55;84.78
42705;BME280;28342;42.594;23.414;2023-05-20T05:31:55;94842.56;;;13.65;85.69
42705;BME280;28342;42.594;23.414;2023-05-20T05:34:21;94821.56;;;13.64;86.17
42705;BME280;28342;42.594;23.414;2023-05-20T05:36:47;94843.94;;;13.80;86.25
42705;BME280;28342;42.594;23.414;2023-05-20T05:39:12;94852.22;;;13.87;82.62
42705;BME280;28342;42.594;23.414;2023-05-20T05:41:37;94819.00;;;13.76;82.15
42705;BME280;28342;42.594;23.414;2023-05-20T05:44:03;94826.03;;;13.89;84.09
42705;BME280;28342;42.594;23.414;2023-05-20T05:46:28;94852.78;;;14.10;84.22
42705;BME280;28342;42.594;23.414;2023-05-20T05:48:54;94838.03;;;14.13;84.81
42705;BME280;28342;42.594;23.414;2023-05-20T05:51:19;94852.84;;;14.31;83.24
42705;BME280;28342;42.594;23.414;2023-05-20T05:53:46;94844.31;;;14.38;83.24
42705;BME280;28342;42.594;23.414;2023-05-20T05:56:12;94823.75;;;14.38;82.99
42705;BME280;28342;42.594;23.414;2023-05-20T05:58:37;94836.88;;;14.52;83.36
42705;BME280;28342;42.594;23.414;2023-05-20T06:01:03;94814.31;;;14.49;83.33
42705;BME280;28342;42.594;23.414;2023-05-20T06:03:29;94835.41;;;14.84;84.34
42705;BME280;28342;42.594;23.414;2023-05-20T06:05:56;94837.25;;;14.92;82.07
42705;BME280;28342;42.594;23.414;2023-05-20T06:08:21;94805.53;;;14.90;82.56
42705;BME280;28342;42.594;23.414;2023-05-20T06:10:49;94828.56;;;15.16;82.12
42705;BME280;28342;42.594;23.414;2023-05-20T06:13:15;94795.69;;;15.03;81.13
42705;BME280;28342;42.594;23.414;2023-05-20T06:15:41;94807.66;;;15.18;82.20
42705;BME280;28342;42.594;23.414;2023-05-20T06:18:06;94821.31;;;15.37;81.19
42705;BME280;28342;42.594;23.414;2023-05-20T06:20:32;94827.44;;;15.38;79.96
42705;BME280;28342;42.594;23.414;2023-05-20T06:22:58;94830.03;;;15.46;79.64
42705;BME280;28342;42.594;23.414;2023-05-20T06:25:24;94816.34;;;15.48;81.79
42705;BME280;28342;42.594;23.414;2023-05-20T06:27:49;94829.78;;;15.72;81.95
42705;BME280;28342;42.594;23.414;2023-05-20T06:30:15;94816.66;;;15.92;80.96
42705;BME280;28342;42.594;23.414;2023-05-20T06:32:41;94820.72;;;16.10;77.37
42705;BME280;28342;42.594;23.414;2023-05-20T06:35:06;94807.22;;;16.19;74.22
42705;BME280;28342;42.594;23.414;2023-05-20T06:37:32;94799.75;;;16.36;75.28
42705;BME280;28342;42.594;23.414;2023-05-20T06:39:58;94803.75;;;16.55;76.18
42705;BME280;28342;42.594;23.414;2023-05-20T06:42:23;94777.63;;;16.52;75.48
42705;BME280;28342;42.594;23.414;2023-05-20T06:44:49;94803.03;;;16.82;75.96
42705;BME280;28342;42.594;23.414;2023-05-20T06:47:16;94790.41;;;16.95;74.45
42705;BME280;28342;42.594;23.414;2023-05-20T06:49:43;94801.09;;;17.35;72.27
42705;BME280;28342;42.594;23.414;2023-05-20T06:52:10;94803.84;;;17.67;70.20
42705;BME280;28342;42.594;23.414;2023-05-20T06:54:39;94803.19;;;18.01;69.52
42705;BME280;28342;42.594;23.414;2023-05-20T06:57:08;94797.72;;;18.29;69.88
42705;BME280;28342;42.594;23.414;2023-05-20T06:59:37;94802.44;;;18.67;64.15
42705;BME280;28342;42.594;23.414;2023-05-20T07:02:03;94809.56;;;18.95;62.93
42705;BME280;28342;42.594;23.414;2023-05-20T07:04:28;94815.53;;;19.23;61.56
42705;BME280;28342;42.594;23.414;2023-05-20T07:06:54;94812.56;;;19.48;64.06
42705;BME280;28342;42.594;23.414;2023-05-20T07:09:20;94793.72;;;19.67;59.12
42705;BME280;28342;42.594;23.414;2023-05-20T07:11:45;94798.75;;;19.91;61.22
42705;BME280;28342;42.594;23.414;2023-05-20T07:14:10;94788.16;;;20.25;59.19
42705;BME280;28342;42.594;23.414;2023-05-20T07:16:36;94796.78;;;20.61;59.74
42705;BME280;28342;42.594;23.414;2023-05-20T07:19:02;94798.16;;;20.77;56.44
42705;BME280;28342;42.594;23.414;2023-05-20T07:21:28;94786.41;;;20.89;59.20
42705;BME280;28342;42.594;23.414;2023-05-20T07:23:53;94785.19;;;21.16;58.99
42705;BME280;28342;42.594;23.414;2023-05-20T07:26:19;94792.41;;;21.39;55.89
42705;BME280;28342;42.594;23.414;2023-05-20T07:28:45;94781.59;;;21.35;52.42
42705;BME280;28342;42.594;23.414;2023-05-20T07:31:11;94785.81;;;21.70;51.75
42705;BME280;28342;42.594;23.414;2023-05-20T07:33:37;94775.50;;;21.79;50.07
42705;BME280;28342;42.594;23.414;2023-05-20T07:36:02;94785.28;;;21.98;55.54
42705;BME280;28342;42.594;23.414;2023-05-20T07:38:30;94799.47;;;21.88;48.13
42705;BME280;28342;42.594;23.414;2023-05-20T07:40:57;94788.38;;;21.96;46.67
42705;BME280;28342;42.594;23.414;2023-05-20T07:43:28;94779.25;;;22.08;47.73
42705;BME280;28342;42.594;23.414;2023-05-20T07:45:55;94771.25;;;22.22;47.67
42705;BME280;28342;42.594;23.414;2023-05-20T07:48:21;94767.56;;;22.48;47.33
42705;BME280;28342;42.594;23.414;2023-05-20T07:50:46;94776.56;;;22.66;47.07
42705;BME280;28342;42.594;23.414;2023-05-20T07:53:12;94772.00;;;22.81;47.32
42705;BME280;28342;42.594;23.414;2023-05-20T07:55:37;94741.69;;;22.44;46.41
42705;BME280;28342;42.594;23.414;2023-05-20T07:58:03;94769.84;;;22.98;47.85
42705;BME280;28342;42.594;23.414;2023-05-20T08:00:29;94770.69;;;23.19;46.07
42705;BME280;28342;42.594;23.414;2023-05-20T08:02:56;94784.66;;;23.29;44.92
42705;BME280;28342;42.594;23.414;2023-05-20T08:05:22;94774.59;;;23.29;49.99
42705;BME280;28342;42.594;23.414;2023-05-20T08:07:47;94779.69;;;23.48;49.18
42705;BME280;28342;42.594;23.414;2023-05-20T08:10:13;94766.16;;;23.55;46.18
42705;BME280;28342;42.594;23.414;2023-05-20T08:12:38;94741.34;;;23.39;44.70
42705;BME280;28342;42.594;23.414;2023-05-20T08:15:05;94770.81;;;23.59;49.08
42705;BME280;28342;42.594;23.414;2023-05-20T08:17:32;94761.63;;;23.92;48.93
42705;BME280;28342;42.594;23.414;2023-05-20T08:19:57;94774.00;;;24.10;44.80
42705;BME280;28342;42.594;23.414;2023-05-20T08:22:22;94758.13;;;23.98;45.62
42705;BME280;28342;42.594;23.414;2023-05-20T08:24:49;94774.75;;;24.00;46.81
42705;BME280;28342;42.594;23.414;2023-05-20T08:27:16;94765.84;;;24.03;44.94
42705;BME280;28342;42.594;23.414;2023-05-20T08:29:43;94743.03;;;24.04;43.06
42705;BME280;28342;42.594;23.414;2023-05-20T08:32:21;94770.13;;;24.19;45.40
42705;BME280;28342;42.594;23.414;2023-05-20T08:34:55;94774.00;;;23.96;43.97
42705;BME280;28342;42.594;23.414;2023-05-20T08:37:38;94780.09;;;23.58;44.87
42705;BME280;28342;42.594;23.414;2023-05-20T08:40:25;94767.66;;;23.35;43.52
42705;BME280;28342;42.594;23.414;2023-05-20T08:43:04;94761.50;;;23.49;45.63
42705;BME280;28342;42.594;23.414;2023-05-20T08:45:49;94766.59;;;23.72;45.28
42705;BME280;28342;42.594;23.414;2023-05-20T08:48:24;94746.88;;;23.68;45.78
42705;BME280;28342;42.594;23.414;2023-05-20T08:50:59;94778.66;;;24.13;48.32
42705;BME280;28342;42.594;23.414;2023-05-20T08:53:28;94773.22;;;23.92;43.53
42705;BME280;28342;42.594;23.414;2023-05-20T08:55:59;94764.72;;;23.90;43.84
42705;BME280;28342;42.594;23.414;2023-05-20T08:58:52;94774.00;;;24.14;47.86
42705;BME280;28342;42.594;23.414;2023-05-20T09:02:23;94770.13;;;24.08;49.48
42705;BME280;28342;42.594;23.414;2023-05-20T09:05:39;94746.13;;;24.13;44.96
42705;BME280;28342;42.594;23.414;2023-05-20T09:08:38;94743.75;;;24.65;46.23
42705;BME280;28342;42.594;23.414;2023-05-20T09:11:52;94722.88;;;24.66;43.93
42705;BME280;28342;42.594;23.414;2023-05-20T10:04:21;94709.75;;;24.22;46.81
42705;BME280;28342;42.594;23.414;2023-05-20T10:48:18;94650.88;;;24.33;39.15
42705;BME280;28342;42.594;23.414;2023-05-20T10:58:25;94664.84;;;23.92;40.64
42705;BME280;28342;42.594;23.414;2023-05-20T11:05:02;94660.03;;;22.13;42.03
42705;BME280;28342;42.594;23.414;2023-05-20T11:08:27;94657.72;;;22.15;45.39
42705;BME280;28342;42.594;23.414;2023-05-20T11:21:51;94638.25;;;22.61;42.81
42705;BME280;28342;42.594;23.414;2023-05-20T11:34:40;94630.59;;;22.77;46.87
42705;BME280;28342;42.594;23.414;2023-05-20T11:41:26;94622.81;;;22.58;44.90
42705;BME280;28342;42.594;23.414;2023-05-20T11:51:43;94608.00;;;22.30;45.15
42705;BME280;28342;42.594;23.414;2023-05-20T12:20:51;94634.84;;;22.02;49.76
42705;BME280;28342;42.594;23.414;2023-05-20T12:24:00;94638.19;;;21.33;49.24
42705;BME280;28342;42.594;23.414;2023-05-20T12:33:48;94642.91;;;20.73;48.33
42705;BME280;28342;42.594;23.414;2023-05-20T12:36:38;94650.50;;;20.64;50.74
42705;BME280;28342;42.594;23.414;2023-05-20T12:49:40;94641.25;;;20.35;53.78
42705;BME280;28342;42.594;23.414;2023-05-20T12:59:39;94621.88;;;19.69;56.09
42705;BME280;28342;42.594;23.414;2023-05-20T13:02:59;94624.50;;;19.42;61.14
42705;BME280;28342;42.594;23.414;2023-05-20T13:09:51;94609.44;;;18.92;63.13
42705;BME280;28342;42.594;23.414;2023-05-20T13:19:54;94621.22;;;18.65;64.90
42705;BME280;28342;42.594;23.414;2023-05-20T13:23:07;94616.84;;;18.99;64.21
42705;BME280;28342;42.594;23.414;2023-05-20T13:25:46;94601.00;;;18.71;65.83
42705;BME280;28342;42.594;23.414;2023-05-20T13:28:27;94597.97;;;18.95;65.65
42705;BME280;28342;42.594;23.414;2023-05-20T13:31:14;94586.53;;;19.21;64.38
42705;BME280;28342;42.594;23.414;2023-05-20T13:33:51;94591.22;;;19.51;65.07
42705;BME280;28342;42.594;23.414;2023-05-20T13:36:58;94581.44;;;19.62;63.80
42705;BME280;28342;42.594;23.414;2023-05-20T13:40:53;94599.69;;;20.06;65.48
42705;BME280;28342;42.594;23.414;2023-05-20T13:44:00;94602.22;;;19.65;63.78
42705;BME280;28342;42.594;23.414;2023-05-20T13:47:18;94614.91;;;20.21;65.43
42705;BME280;28342;42.594;23.414;2023-05-20T13:50:05;94587.34;;;19.75;64.11
42705;BME280;28342;42.594;23.414;2023-05-20T13:56:44;94588.84;;;20.28;63.77
42705;BME280;28342;42.594;23.414;2023-05-20T13:59:46;94585.44;;;20.99;62.04
42705;BME280;28342;42.594;23.414;2023-05-20T14:03:26;94556.09;;;20.23;60.89
42705;BME280;28342;42.594;23.414;2023-05-20T14:06:50;94568.66;;;20.79;63.27
42705;BME280;28342;42.594;23.414;2023-05-20T14:20:00;94563.69;;;20.47;60.14
42705;BME280;28342;42.594;23.414;2023-05-20T14:26:29;94556.47;;;19.91;62.76
42705;BME280;28342;42.594;23.414;2023-05-20T14:29:48;94562.66;;;19.95;61.78
42705;BME280;28342;42.594;23.414;2023-05-20T14:32:50;94565.53;;;19.80;62.15
42705;BME280;28342;42.594;23.414;2023-05-20T14:35:53;94565.31;;;19.65;65.08
42705;BME280;28342;42.594;23.414;2023-05-20T14:38:20;94557.16;;;19.88;65.60
42705;BME280;28342;42.594;23.414;2023-05-20T14:40:58;94521.38;;;19.58;65.24
42705;BME280;28342;42.594;23.414;2023-05-20T14:50:14;94540.38;;;19.98;62.04
42705;BME280;28342;42.594;23.414;2023-05-20T14:53:23;94521.94;;;20.00;62.72
42705;BME280;28342;42.594;23.414;2023-05-20T15:03:07;94526.34;;;19.82;63.11
42705;BME280;28342;42.594;23.414;2023-05-20T15:06:12;94530.03;;;19.70;63.06
42705;BME280;28342;42.594;23.414;2023-05-20T15:25:37;94505.91;;;19.51;65.43
42705;BME280;28342;42.594;23.414;2023-05-20T15:29:30;94501.53;;;19.66;66.27
42705;BME280;28342;42.594;23.414;2023-05-20T15:36:44;94519.94;;;19.64;64.72
42705;BME280;28342;42.594;23.414;2023-05-20T16:14:48;94518.97;;;19.00;64.78
42705;BME280;28342;42.594;23.414;2023-05-20T16:25:28;94514.97;;;18.90;65.45
42705;BME280;28342;42.594;23.414;2023-05-20T16:49:31;94522.44;;;19.00;66.79
42705;BME280;28342;42.594;23.414;2023-05-20T16:55:49;94527.63;;;18.90;61.46
42705;BME280;28342;42.594;23.414;2023-05-20T17:06:13;94540.88;;;19.02;61.80
42705;BME280;28342;42.594;23.414;2023-05-20T17:09:19;94534.38;;;19.03;61.42
42705;BME280;28342;42.594;23.414;2023-05-20T17:18:53;94521.41;;;18.86;61.84
42705;BME280;28342;42.594;23.414;2023-05-20T17:22:24;94524.09;;;18.86;61.54
42705;BME280;28342;42.594;23.414;2023-05-20T17:24:56;94551.16;;;18.96;62.26
42705;BME280;28342;42.594;23.414;2023-05-20T17:27:30;94546.44;;;18.90;62.51
42705;BME280;28342;42.594;23.414;2023-05-20T17:30:13;94540.94;;;18.83;62.90
42705;BME280;28342;42.594;23.414;2023-05-20T17:32:40;94522.03;;;18.56;63.02
42705;BME280;28342;42.594;23.414;2023-05-20T17:35:09;94539.84;;;18.64;62.75
42705;BME280;28342;42.594;23.414;2023-05-20T17:38:01;94551.31;;;18.42;62.99
42705;BME280;28342;42.594;23.414;2023-05-20T17:40:31;94536.84;;;18.27;62.19
42705;BME280;28342;42.594;23.414;2023-05-20T17:43:31;94551.38;;;18.07;63.80
42705;BME280;28342;42.594;23.414;2023-05-20T17:53:08;94562.22;;;17.59;63.47
42705;BME280;28342;42.594;23.414;2023-05-20T17:56:33;94562.34;;;17.63;65.54
42705;BME280;28342;42.594;23.414;2023-05-20T17:59:10;94553.94;;;17.65;66.92
42705;BME280;28342;42.594;23.414;2023-05-20T18:02:05;94564.66;;;17.65;69.08
42705;BME280;28342;42.594;23.414;2023-05-20T18:05:07;94564.34;;;17.50;70.95
42705;BME280;28342;42.594;23.414;2023-05-20T18:07:49;94549.16;;;17.23;71.31
42705;BME280;28342;42.594;23.414;2023-05-20T18:10:38;94562.97;;;17.25;71.84
42705;BME280;28342;42.594;23.414;2023-05-20T18:13:09;94567.06;;;17.19;72.29
42705;BME280;28342;42.594;23.414;2023-05-20T18:15:49;94564.28;;;17.15;72.26
42705;BME280;28342;42.594;23.414;2023-05-20T18:19:00;94559.53;;;17.09;71.95
42705;BME280;28342;42.594;23.414;2023-05-20T18:21:33;94554.88;;;17.06;72.95
42705;BME280;28342;42.594;23.414;2023-05-20T18:24:23;94562.47;;;17.03;73.72
42705;BME280;28342;42.594;23.414;2023-05-20T18:26:57;94540.25;;;17.03;73.48
42705;BME280;28342;42.594;23.414;2023-05-20T18:32:52;94547.88;;;17.01;74.52
42705;BME280;28342;42.594;23.414;2023-05-20T18:35:42;94574.13;;;17.11;73.41
42705;BME280;28342;42.594;23.414;2023-05-20T18:38:08;94586.34;;;17.09;74.76
42705;BME280;28342;42.594;23.414;2023-05-20T18:41:12;94590.47;;;16.90;75.89
42705;BME280;28342;42.594;23.414;2023-05-20T18:43:56;94585.38;;;16.85;75.36
42705;BME280;28342;42.594;23.414;2023-05-20T18:46:27;94574.50;;;16.66;76.42
42705;BME280;28342;42.594;23.414;2023-05-20T18:48:59;94572.69;;;16.54;76.79
42705;BME280;28342;42.594;23.414;2023-05-20T18:51:52;94596.31;;;16.80;75.67
42705;BME280;28342;42.594;23.414;2023-05-20T18:54:36;94608.00;;;16.72;74.64
42705;BME280;28342;42.594;23.414;2023-05-20T18:57:04;94567.47;;;16.46;75.46
42705;BME280;28342;42.594;23.414;2023-05-20T19:00:12;94593.16;;;16.62;76.62
42705;BME280;28342;42.594;23.414;2023-05-20T19:03:00;94598.66;;;16.54;77.01
42705;BME280;28342;42.594;23.414;2023-05-20T19:05:57;94606.22;;;16.64;76.92
42705;BME280;28342;42.594;23.414;2023-05-20T19:08:34;94599.56;;;16.58;76.72
42705;BME280;28342;42.594;23.414;2023-05-20T19:11:09;94582.41;;;16.47;76.03